sensor_id;sensor_type;location;lat;lon;timestamp;temperature;humidity
52211;DHT22;38179;52.756;6.906;2023-12-20T00:01:35;5.20;99.90
52211;DHT22;38179;52.756;6.906;2023-12-20T00:04:02;5.20;99.90
52211;DHT22;38179;52.756;6.906;2023-12-20T00:06:28;5.20;99.90
52211;DHT22;38179;52.756;6.906;2023-12-20T00:08:54;5.20;99.90
52211;DHT22;38179;52.756;6.906;2023-12-20T00:11:20;5.20;99.90
52211;DHT22;38179;52.756;6.906;2023-12-20T00:13:46;5.30;99.90
52211;DHT22;38179;52.756;6.906;2023-12-20T00:16:12;5.20;99.90
52211;DHT22;38179;52.756;6.906;2023-12-20T00:18:38;5.20;99.90
52211;DHT22;38179;52.756;6.906;2023-12-20T00:21:03;5.20;99.90
52211;DHT22;38179;52.756;6.906;2023-12-20T00:23:29;5.20;99.90
52211;DHT22;38179;52.756;6.906;2023-12-20T00:25:55;5.20;99.90
52211;DHT22;38179;52.756;6.906;2023-12-20T00:28:22;5.20;99.90
52211;DHT22;38179;52.756;6.906;2023-12-20T00:30:48;5.20;99.90
52211;DHT22;38179;52.756;6.906;2023-12-20T00:33:13;5.10;99.90
52211;DHT22;38179;52.756;6.906;2023-12-20T00:35:39;5.10;99.90
52211;DHT22;38179;52.756;6.906;2023-12-20T00:38:05;5.20;99.90
52211;DHT22;38179;52.756;6.906;2023-12-20T00:40:32;5.10;99.90
52211;DHT22;38179;52.756;6.906;2023-12-20T00:42:59;5.10;99.90
52211;DHT22;38179;52.756;6.906;2023-12-20T00:45:25;5.10;99.90
52211;DHT22;38179;52.756;6.906;2023-12-20T00:47:51;5.00;99.90
52211;DHT22;38179;52.756;6.906;2023-12-20T00:50:17;4.90;99.90
52211;DHT22;38179;52.756;6.906;2023-12-20T00:52:43;5.00;99.90
52211;DHT22;38179;52.756;6.906;2023-12-20T00:55:09;5.00;99.90
52211;DHT22;38179;52.756;6.906;2023-12-20T00:57:34;5.00;99.90
52211;DHT22;38179;52.756;6.906;2023-12-20T01:00:00;5.00;99.90
52211;DHT22;38179;52.756;6.906;2023-12-20T01:02:26;5.00;99.90
52211;DHT22;38179;52.756;6.906;2023-12-20T01:04:52;5.00;99.90
52211;DHT22;38179;52.756;6.906;2023-12-20T01:07:18;5.00;99.90
52211;DHT22;38179;52.756;6.906;2023-12-20T01:09:44;5.00;99.90
52211;DHT22;38179;52.756;6.906;2023-12-20T01:12:10;5.00;99.90
52211;DHT22;38179;52.756;6.906;2023-12-20T01:14:36;5.00;99.90
52211;DHT22;38179;52.756;6.906;2023-12-20T01:17:02;5.00;99.90
52211;DHT22;38179;52.756;6.906;2023-12-20T01:19:28;4.90;99.90
52211;DHT22;38179;52.756;6.906;2023-12-20T01:21:55;5.00;99.90
52211;DHT22;38179;52.756;6.906;2023-12-20T01:24:21;4.90;99.90
52211;DHT22;38179;52.756;6.906;2023-12-20T01:26:47;5.00;99.90
52211;DHT22;38179;52.756;6.906;2023-12-20T01:29:13;5.00;99.90
52211;DHT22;38179;52.756;6.906;2023-12-20T01:31:40;5.00;99.90
52211;DHT22;38179;52.756;6.906;2023-12-20T01:34:08;5.00;99.90
52211;DHT22;38179;52.756;6.906;2023-12-20T01:36:34;5.00;99.90
52211;DHT22;38179;52.756;6.906;2023-12-20T01:39:00;5.00;99.90
52211;DHT22;38179;52.756;6.906;2023-12-20T01:41:26;5.00;99.90
52211;DHT22;38179;52.756;6.906;2023-12-20T01:43:52;5.00;99.90
52211;DHT22;38179;52.756;6.906;2023-12-20T01:46:19;5.00;99.90
52211;DHT22;38179;52.756;6.906;2023-12-20T01:48:48;5.00;99.90
52211;DHT22;38179;52.756;6.906;2023-12-20T01:51:14;5.00;99.90
52211;DHT22;38179;52.756;6.906;2023-12-20T01:53:41;4.90;99.90
52211;DHT22;38179;52.756;6.906;2023-12-20T01:56:08;4.90;99.90
52211;DHT22;38179;52.756;6.906;2023-12-20T01:58:34;4.90;99.90
52211;DHT22;38179;52.756;6.906;2023-12-20T02:01:02;5.00;99.90
52211;DHT22;38179;52.756;6.906;2023-12-20T02:03:28;5.00;99.90
52211;DHT22;38179;52.756;6.906;2023-12-20T02:05:54;5.00;99.90
52211;DHT22;38179;52.756;6.906;2023-12-20T02:08:20;5.00;99.90
52211;DHT22;38179;52.756;6.906;2023-12-20T02:10:46;4.90;99.90
52211;DHT22;38179;52.756;6.906;2023-12-20T02:13:13;5.00;99.90
52211;DHT22;38179;52.756;6.906;2023-12-20T02:15:38;5.00;99.90
52211;DHT22;38179;52.756;6.906;2023-12-20T02:18:06;5.00;99.90
52211;DHT22;38179;52.756;6.906;2023-12-20T02:20:31;5.00;99.90
52211;DHT22;38179;52.756;6.906;2023-12-20T02:22:57;5.00;99.90
52211;DHT22;38179;52.756;6.906;2023-12-20T02:25:23;5.10;99.90
52211;DHT22;38179;52.756;6.906;2023-12-20T02:27:49;5.10;99.90
52211;DHT22;38179;52.756;6.906;2023-12-20T02:30:16;5.10;99.90
52211;DHT22;38179;52.756;6.906;2023-12-20T02:32:42;5.10;99.90
52211;DHT22;38179;52.756;6.906;2023-12-20T02:35:08;5.10;99.90
52211;DHT22;38179;52.756;6.906;2023-12-20T02:37:34;5.10;99.90
52211;DHT22;38179;52.756;6.906;2023-12-20T02:40:00;5.10;99.90
52211;DHT22;38179;52.756;6.906;2023-12-20T02:42:25;5.20;99.90
52211;DHT22;38179;52.756;6.906;2023-12-20T02:44:51;5.20;99.90
52211;DHT22;38179;52.756;6.906;2023-12-20T02:47:17;5.20;99.90
52211;DHT22;38179;52.756;6.906;2023-12-20T02:49:43;5.20;99.90
52211;DHT22;38179;52.756;6.906;2023-12-20T02:52:09;5.20;99.90
52211;DHT22;38179;52.756;6.906;2023-12-20T02:54:35;5.20;99.90
52211;DHT22;38179;52.756;6.906;2023-12-20T02:57:00;5.20;99.90
52211;DHT22;38179;52.756;6.906;2023-12-20T02:59:26;5.20;99.90
52211;DHT22;38179;52.756;6.906;2023-12-20T03:01:52;5.20;99.90
52211;DHT22;38179;52.756;6.906;2023-12-20T03:04:18;5.20;99.90
52211;DHT22;38179;52.756;6.906;2023-12-20T03:06:44;5.20;99.90
52211;DHT22;38179;52.756;6.906;2023-12-20T03:09:10;5.30;99.90
52211;DHT22;38179;52.756;6.906;2023-12-20T03:11:35;5.30;99.90
52211;DHT22;38179;52.756;6.906;2023-12-20T03:14:01;5.30;99.90
52211;DHT22;38179;52.756;6.906;2023-12-20T03:16:27;5.30;99.90
52211;DHT22;38179;52.756;6.906;2023-12-20T03:18:53;5.30;99.90
52211;DHT22;38179;52.756;6.906;2023-12-20T03:21:19;5.30;99.90
52211;DHT22;38179;52.756;6.906;2023-12-20T03:23:45;5.30;99.90
52211;DHT22;38179;52.756;6.906;2023-12-20T03:26:11;5.30;99.90
52211;DHT22;38179;52.756;6.906;2023-12-20T03:28:37;5.30;99.90
52211;DHT22;38179;52.756;6.906;2023-12-20T03:31:03;5.40;99.90
52211;DHT22;38179;52.756;6.906;2023-12-20T03:33:29;5.40;99.90
52211;DHT22;38179;52.756;6.906;2023-12-20T03:35:55;5.40;99.90
52211;DHT22;38179;52.756;6.906;2023-12-20T03:38:21;5.40;99.90
52211;DHT22;38179;52.756;6.906;2023-12-20T03:40:49;5.40;99.90
52211;DHT22;38179;52.756;6.906;2023-12-20T03:43:15;5.40;99.90
52211;DHT22;38179;52.756;6.906;2023-12-20T03:45:42;5.40;99.90
52211;DHT22;38179;52.756;6.906;2023-12-20T03:48:08;5.40;99.90
52211;DHT22;38179;52.756;6.906;2023-12-20T03:50:34;5.40;99.90
52211;DHT22;38179;52.756;6.906;2023-12-20T03:53:00;5.40;99.90
52211;DHT22;38179;52.756;6.906;2023-12-20T03:55:26;5.40;99.90
52211;DHT22;38179;52.756;6.906;2023-12-20T03:57:52;5.30;99.90
52211;DHT22;38179;52.756;6.906;2023-12-20T04:00:18;5.30;99.90
52211;DHT22;38179;52.756;6.906;2023-12-20T04:02:44;5.30;99.90
52211;DHT22;38179;52.756;6.906;2023-12-20T04:05:10;5.30;99.90
52211;DHT22;38179;52.756;6.906;2023-12-20T04:07:38;5.40;99.90
52211;DHT22;38179;52.756;6.906;2023-12-20T04:10:04;5.40;99.90
52211;DHT22;38179;52.756;6.906;2023-12-20T04:12:30;5.40;99.90
52211;DHT22;38179;52.756;6.906;2023-12-20T04:14:57;5.40;99.90
52211;DHT22;38179;52.756;6.906;2023-12-20T04:17:23;5.40;99.90
52211;DHT22;38179;52.756;6.906;2023-12-20T04:19:49;5.40;99.90
52211;DHT22;38179;52.756;6.906;2023-12-20T04:22:16;5.40;99.90
52211;DHT22;38179;52.756;6.906;2023-12-20T04:24:42;5.40;99.90
52211;DHT22;38179;52.756;6.906;2023-12-20T04:27:08;5.40;99.90
52211;DHT22;38179;52.756;6.906;2023-12-20T04:29:34;5.40;99.90
52211;DHT22;38179;52.756;6.906;2023-12-20T04:32:00;5.40;99.90
52211;DHT22;38179;52.756;6.906;2023-12-20T04:34:26;5.40;99.90
52211;DHT22;38179;52.756;6.906;2023-12-20T04:36:52;5.40;99.90
52211;DHT22;38179;52.756;6.906;2023-12-20T04:39:18;5.40;99.90
52211;DHT22;38179;52.756;6.906;2023-12-20T04:41:44;5.40;99.90
52211;DHT22;38179;52.756;6.906;2023-12-20T04:44:10;5.40;99.90
52211;DHT22;38179;52.756;6.906;2023-12-20T04:46:36;5.40;99.90
52211;DHT22;38179;52.756;6.906;2023-12-20T04:49:02;5.50;99.90
52211;DHT22;38179;52.756;6.906;2023-12-20T04:51:28;5.50;99.90
52211;DHT22;38179;52.756;6.906;2023-12-20T04:53:54;5.50;99.90
52211;DHT22;38179;52.756;6.906;2023-12-20T04:56:20;5.60;99.90
52211;DHT22;38179;52.756;6.906;2023-12-20T04:58:45;5.60;99.90
52211;DHT22;38179;52.756;6.906;2023-12-20T05:01:14;5.60;99.90
52211;DHT22;38179;52.756;6.906;2023-12-20T05:03:40;5.60;99.90
52211;DHT22;38179;52.756;6.906;2023-12-20T05:06:06;5.60;99.90
52211;DHT22;38179;52.756;6.906;2023-12-20T05:08:32;5.60;99.90
52211;DHT22;38179;52.756;6.906;2023-12-20T05:10:58;5.60;99.90
52211;DHT22;38179;52.756;6.906;2023-12-20T05:13:24;5.70;99.90
52211;DHT22;38179;52.756;6.906;2023-12-20T05:15:49;5.70;99.90
52211;DHT22;38179;52.756;6.906;2023-12-20T05:18:16;5.80;99.90
52211;DHT22;38179;52.756;6.906;2023-12-20T05:20:42;5.70;99.90
52211;DHT22;38179;52.756;6.906;2023-12-20T05:23:08;5.70;99.90
52211;DHT22;38179;52.756;6.906;2023-12-20T05:25:33;5.70;99.90
52211;DHT22;38179;52.756;6.906;2023-12-20T05:27:59;5.80;99.90
52211;DHT22;38179;52.756;6.906;2023-12-20T05:30:25;5.80;99.90
52211;DHT22;38179;52.756;6.906;2023-12-20T05:32:52;5.80;99.90
52211;DHT22;38179;52.756;6.906;2023-12-20T05:35:18;5.80;99.90
52211;DHT22;38179;52.756;6.906;2023-12-20T05:37:44;5.80;99.90
52211;DHT22;38179;52.756;6.906;2023-12-20T05:40:10;5.90;99.90
52211;DHT22;38179;52.756;6.906;2023-12-20T05:42:37;5.90;99.90
52211;DHT22;38179;52.756;6.906;2023-12-20T05:45:06;5.90;99.90
52211;DHT22;38179;52.756;6.906;2023-12-20T05:47:32;5.90;99.90
52211;DHT22;38179;52.756;6.906;2023-12-20T05:49:58;5.90;99.90
52211;DHT22;38179;52.756;6.906;2023-12-20T05:52:24;5.90;99.90
52211;DHT22;38179;52.756;6.906;2023-12-20T05:54:50;5.90;99.90
52211;DHT22;38179;52.756;6.906;2023-12-20T05:57:16;5.90;99.90
52211;DHT22;38179;52.756;6.906;2023-12-20T05:59:41;5.90;99.90
52211;DHT22;38179;52.756;6.906;2023-12-20T06:02:07;5.90;99.90
52211;DHT22;38179;52.756;6.906;2023-12-20T06:04:33;5.90;99.90
52211;DHT22;38179;52.756;6.906;2023-12-20T06:06:59;5.90;99.90
52211;DHT22;38179;52.756;6.906;2023-12-20T06:09:27;5.90;99.90
52211;DHT22;38179;52.756;6.906;2023-12-20T06:11:53;6.00;99.90
52211;DHT22;38179;52.756;6.906;2023-12-20T06:14:19;6.00;99.90
52211;DHT22;38179;52.756;6.906;2023-12-20T06:16:45;6.00;99.90
52211;DHT22;38179;52.756;6.906;2023-12-20T06:19:11;6.00;99.90
52211;DHT22;38179;52.756;6.906;2023-12-20T06:21:37;6.00;99.90
52211;DHT22;38179;52.756;6.906;2023-12-20T06:24:03;6.10;99.90
52211;DHT22;38179;52.756;6.906;2023-12-20T06:26:29;6.10;99.90
52211;DHT22;38179;52.756;6.906;2023-12-20T06:28:55;6.10;99.90
52211;DHT22;38179;52.756;6.906;2023-12-20T06:31:21;6.10;99.90
52211;DHT22;38179;52.756;6.906;2023-12-20T06:33:47;6.20;99.90
52211;DHT22;38179;52.756;6.906;2023-12-20T06:36:15;6.20;99.90
52211;DHT22;38179;52.756;6.906;2023-12-20T06:38:41;6.20;99.90
52211;DHT22;38179;52.756;6.906;2023-12-20T06:41:07;6.20;99.90
52211;DHT22;38179;52.756;6.906;2023-12-20T06:43:33;6.20;99.90
52211;DHT22;38179;52.756;6.906;2023-12-20T06:46:02;6.20;99.90
52211;DHT22;38179;52.756;6.906;2023-12-20T06:48:28;6.20;99.90
52211;DHT22;38179;52.756;6.906;2023-12-20T06:50:54;6.20;99.90
52211;DHT22;38179;52.756;6.906;2023-12-20T06:53:21;6.20;99.90
52211;DHT22;38179;52.756;6.906;2023-12-20T06:55:47;6.20;99.90
52211;DHT22;38179;52.756;6.906;2023-12-20T06:58:14;6.20;99.90
52211;DHT22;38179;52.756;6.906;2023-12-20T07:00:41;6.20;99.90
52211;DHT22;38179;52.756;6.906;2023-12-20T07:03:06;6.20;99.90
52211;DHT22;38179;52.756;6.906;2023-12-20T07:05:32;6.20;99.90
52211;DHT22;38179;52.756;6.906;2023-12-20T07:07:59;6.20;99.90
52211;DHT22;38179;52.756;6.906;2023-12-20T07:10:27;6.20;99.90
52211;DHT22;38179;52.756;6.906;2023-12-20T07:12:53;6.30;99.90
52211;DHT22;38179;52.756;6.906;2023-12-20T07:15:21;6.20;99.90
52211;DHT22;38179;52.756;6.906;2023-12-20T07:17:47;6.20;99.90
52211;DHT22;38179;52.756;6.906;2023-12-20T07:20:13;6.20;99.90
52211;DHT22;38179;52.756;6.906;2023-12-20T07:22:39;6.20;99.90
52211;DHT22;38179;52.756;6.906;2023-12-20T07:25:05;6.30;99.90
52211;DHT22;38179;52.756;6.906;2023-12-20T07:27:31;6.30;99.90
52211;DHT22;38179;52.756;6.906;2023-12-20T07:29:57;6.30;99.90
52211;DHT22;38179;52.756;6.906;2023-12-20T07:32:23;6.30;99.90
52211;DHT22;38179;52.756;6.906;2023-12-20T07:34:49;6.30;99.90
52211;DHT22;38179;52.756;6.906;2023-12-20T07:37:15;6.40;99.90
52211;DHT22;38179;52.756;6.906;2023-12-20T07:39:41;6.40;99.90
52211;DHT22;38179;52.756;6.906;2023-12-20T07:42:08;6.40;99.90
52211;DHT22;38179;52.756;6.906;2023-12-20T07:44:34;6.40;99.90
52211;DHT22;38179;52.756;6.906;2023-12-20T07:49:52;6.40;99.90
52211;DHT22;38179;52.756;6.906;2023-12-20T07:52:19;6.40;99.90
52211;DHT22;38179;52.756;6.906;2023-12-20T07:54:45;6.40;99.90
52211;DHT22;38179;52.756;6.906;2023-12-20T07:57:11;6.40;99.90
52211;DHT22;38179;52.756;6.906;2023-12-20T07:59:37;6.40;99.90
52211;DHT22;38179;52.756;6.906;2023-12-20T08:02:03;6.40;99.90
52211;DHT22;38179;52.756;6.906;2023-12-20T08:04:29;6.40;99.90
52211;DHT22;38179;52.756;6.906;2023-12-20T08:06:55;6.50;99.90
52211;DHT22;38179;52.756;6.906;2023-12-20T08:09:21;6.40;99.90
52211;DHT22;38179;52.756;6.906;2023-12-20T08:11:48;6.40;99.90
52211;DHT22;38179;52.756;6.906;2023-12-20T08:14:14;6.50;99.90
52211;DHT22;38179;52.756;6.906;2023-12-20T08:16:40;6.50;99.90
52211;DHT22;38179;52.756;6.906;2023-12-20T08:19:06;6.50;99.90
52211;DHT22;38179;52.756;6.906;2023-12-20T08:21:31;6.60;99.90
52211;DHT22;38179;52.756;6.906;2023-12-20T08:23:57;6.60;99.90
52211;DHT22;38179;52.756;6.906;2023-12-20T08:26:23;6.60;99.90
52211;DHT22;38179;52.756;6.906;2023-12-20T08:28:50;6.60;99.90
52211;DHT22;38179;52.756;6.906;2023-12-20T08:31:17;6.60;99.90
52211;DHT22;38179;52.756;6.906;2023-12-20T08:33:47;6.60;99.90
52211;DHT22;38179;52.756;6.906;2023-12-20T08:36:14;6.60;99.90
52211;DHT22;38179;52.756;6.906;2023-12-20T08:38:40;6.70;99.90
52211;DHT22;38179;52.756;6.906;2023-12-20T08:41:06;6.70;99.90
52211;DHT22;38179;52.756;6.906;2023-12-20T08:43:33;6.70;99.90
52211;DHT22;38179;52.756;6.906;2023-12-20T08:46:00;6.70;99.90
52211;DHT22;38179;52.756;6.906;2023-12-20T08:48:26;6.80;99.90
52211;DHT22;38179;52.756;6.906;2023-12-20T08:50:51;6.80;99.90
52211;DHT22;38179;52.756;6.906;2023-12-20T08:53:18;6.80;99.90
52211;DHT22;38179;52.756;6.906;2023-12-20T08:55:45;6.80;99.90
52211;DHT22;38179;52.756;6.906;2023-12-20T08:58:11;6.80;99.90
52211;DHT22;38179;52.756;6.906;2023-12-20T09:00:37;6.90;99.90
52211;DHT22;38179;52.756;6.906;2023-12-20T09:03:04;6.90;99.90
52211;DHT22;38179;52.756;6.906;2023-12-20T09:05:30;6.90;99.90
52211;DHT22;38179;52.756;6.906;2023-12-20T09:07:57;6.90;99.90
52211;DHT22;38179;52.756;6.906;2023-12-20T09:10:23;6.90;99.90
52211;DHT22;38179;52.756;6.906;2023-12-20T09:12:50;6.90;99.90
52211;DHT22;38179;52.756;6.906;2023-12-20T09:15:17;6.90;99.90
52211;DHT22;38179;52.756;6.906;2023-12-20T09:17:43;6.90;99.90
52211;DHT22;38179;52.756;6.906;2023-12-20T09:20:10;7.00;99.90
52211;DHT22;38179;52.756;6.906;2023-12-20T09:22:36;7.00;99.90
52211;DHT22;38179;52.756;6.906;2023-12-20T09:25:04;7.00;99.90
52211;DHT22;38179;52.756;6.906;2023-12-20T09:27:30;7.10;99.90
52211;DHT22;38179;52.756;6.906;2023-12-20T09:29:56;7.20;99.90
52211;DHT22;38179;52.756;6.906;2023-12-20T09:32:22;7.20;99.90
52211;DHT22;38179;52.756;6.906;2023-12-20T09:34:48;7.20;99.90
52211;DHT22;38179;52.756;6.906;2023-12-20T09:37:14;7.20;99.90
52211;DHT22;38179;52.756;6.906;2023-12-20T09:39:40;7.20;99.90
52211;DHT22;38179;52.756;6.906;2023-12-20T09:42:06;7.20;99.90
52211;DHT22;38179;52.756;6.906;2023-12-20T09:44:33;7.20;99.90
52211;DHT22;38179;52.756;6.906;2023-12-20T09:47:03;7.30;99.90
52211;DHT22;38179;52.756;6.906;2023-12-20T09:49:30;7.30;99.90
52211;DHT22;38179;52.756;6.906;2023-12-20T09:51:58;7.30;99.90
52211;DHT22;38179;52.756;6.906;2023-12-20T09:54:26;7.40;99.90
52211;DHT22;38179;52.756;6.906;2023-12-20T09:56:54;7.40;99.90
52211;DHT22;38179;52.756;6.906;2023-12-20T09:59:22;7.40;99.90
52211;DHT22;38179;52.756;6.906;2023-12-20T10:01:48;7.40;99.90
52211;DHT22;38179;52.756;6.906;2023-12-20T10:04:15;7.40;99.90
52211;DHT22;38179;52.756;6.906;2023-12-20T10:06:42;7.40;99.90
52211;DHT22;38179;52.756;6.906;2023-12-20T10:09:12;7.30;99.90
52211;DHT22;38179;52.756;6.906;2023-12-20T10:11:38;7.10;99.90
52211;DHT22;38179;52.756;6.906;2023-12-20T10:14:05;7.00;99.90
52211;DHT22;38179;52.756;6.906;2023-12-20T10:16:32;6.70;99.90
52211;DHT22;38179;52.756;6.906;2023-12-20T10:18:59;6.50;99.90
52211;DHT22;38179;52.756;6.906;2023-12-20T10:21:25;6.50;99.90
52211;DHT22;38179;52.756;6.906;2023-12-20T10:23:57;6.30;99.90
52211;DHT22;38179;52.756;6.906;2023-12-20T10:26:26;6.30;99.90
52211;DHT22;38179;52.756;6.906;2023-12-20T10:28:56;6.20;99.90
52211;DHT22;38179;52.756;6.906;2023-12-20T10:31:34;6.10;99.90
52211;DHT22;38179;52.756;6.906;2023-12-20T10:34:01;6.10;99.90
52211;DHT22;38179;52.756;6.906;2023-12-20T10:36:28;6.00;99.90
52211;DHT22;38179;52.756;6.906;2023-12-20T10:38:55;5.90;99.90
52211;DHT22;38179;52.756;6.906;2023-12-20T10:41:29;5.90;99.90
52211;DHT22;38179;52.756;6.906;2023-12-20T10:44:04;5.90;99.90
52211;DHT22;38179;52.756;6.906;2023-12-20T10:46:33;5.80;99.90
52211;DHT22;38179;52.756;6.906;2023-12-20T10:49:02;5.90;99.90
52211;DHT22;38179;52.756;6.906;2023-12-20T10:51:28;5.80;99.90
52211;DHT22;38179;52.756;6.906;2023-12-20T10:53:57;5.80;99.90
52211;DHT22;38179;52.756;6.906;2023-12-20T10:56:25;5.90;99.90
52211;DHT22;38179;52.756;6.906;2023-12-20T10:58:52;5.90;99.90
52211;DHT22;38179;52.756;6.906;2023-12-20T11:01:19;5.90;99.90
52211;DHT22;38179;52.756;6.906;2023-12-20T11:03:52;5.90;99.90
52211;DHT22;38179;52.756;6.906;2023-12-20T11:08:55;5.90;99.90
52211;DHT22;38179;52.756;6.906;2023-12-20T11:11:29;5.90;99.90
52211;DHT22;38179;52.756;6.906;2023-12-20T11:14:13;5.90;99.90
52211;DHT22;38179;52.756;6.906;2023-12-20T11:16:41;5.90;99.90
52211;DHT22;38179;52.756;6.906;2023-12-20T11:19:07;6.00;99.90
52211;DHT22;38179;52.756;6.906;2023-12-20T11:21:33;6.00;99.90
52211;DHT22;38179;52.756;6.906;2023-12-20T11:24:00;6.00;99.90
52211;DHT22;38179;52.756;6.906;2023-12-20T11:26:29;6.00;99.90
52211;DHT22;38179;52.756;6.906;2023-12-20T11:29:33;6.00;99.90
52211;DHT22;38179;52.756;6.906;2023-12-20T11:32:01;6.10;99.90
52211;DHT22;38179;52.756;6.906;2023-12-20T11:34:31;6.10;99.90
52211;DHT22;38179;52.756;6.906;2023-12-20T11:37:02;6.10;99.90
52211;DHT22;38179;52.756;6.906;2023-12-20T11:39:29;6.10;99.90
52211;DHT22;38179;52.756;6.906;2023-12-20T11:41:56;6.10;99.90
52211;DHT22;38179;52.756;6.906;2023-12-20T11:44:25;6.20;99.90
52211;DHT22;38179;52.756;6.906;2023-12-20T11:46:51;6.20;99.90
52211;DHT22;38179;52.756;6.906;2023-12-20T11:49:25;6.20;99.90
52211;DHT22;38179;52.756;6.906;2023-12-20T11:51:51;6.30;99.90
52211;DHT22;38179;52.756;6.906;2023-12-20T11:54:18;6.30;99.90
52211;DHT22;38179;52.756;6.906;2023-12-20T11:56:43;6.30;99.90
52211;DHT22;38179;52.756;6.906;2023-12-20T11:59:09;6.30;99.90
52211;DHT22;38179;52.756;6.906;2023-12-20T12:01:37;6.30;99.90
52211;DHT22;38179;52.756;6.906;2023-12-20T12:04:06;6.30;99.90
52211;DHT22;38179;52.756;6.906;2023-12-20T12:06:33;6.40;99.90
52211;DHT22;38179;52.756;6.906;2023-12-20T12:08:59;6.30;99.90
52211;DHT22;38179;52.756;6.906;2023-12-20T12:11:25;6.40;99.90
52211;DHT22;38179;52.756;6.906;2023-12-20T12:13:51;6.40;99.90
52211;DHT22;38179;52.756;6.906;2023-12-20T12:16:18;6.40;99.90
52211;DHT22;38179;52.756;6.906;2023-12-20T12:18:55;6.40;99.90
52211;DHT22;38179;52.756;6.906;2023-12-20T12:21:21;6.40;99.90
52211;DHT22;38179;52.756;6.906;2023-12-20T12:23:47;6.40;99.90
52211;DHT22;38179;52.756;6.906;2023-12-20T12:26:13;6.50;99.90
52211;DHT22;38179;52.756;6.906;2023-12-20T12:28:42;6.50;99.90
52211;DHT22;38179;52.756;6.906;2023-12-20T12:31:17;6.50;99.90
52211;DHT22;38179;52.756;6.906;2023-12-20T12:33:43;6.50;99.90
52211;DHT22;38179;52.756;6.906;2023-12-20T12:36:10;6.50;99.90
52211;DHT22;38179;52.756;6.906;2023-12-20T12:38:37;6.50;99.90
52211;DHT22;38179;52.756;6.906;2023-12-20T12:41:04;6.50;99.90
52211;DHT22;38179;52.756;6.906;2023-12-20T12:43:31;6.50;99.90
52211;DHT22;38179;52.756;6.906;2023-12-20T12:45:57;6.50;99.90
52211;DHT22;38179;52.756;6.906;2023-12-20T12:48:22;6.50;99.90
52211;DHT22;38179;52.756;6.906;2023-12-20T12:50:48;6.50;99.90
52211;DHT22;38179;52.756;6.906;2023-12-20T12:53:17;6.50;99.90
52211;DHT22;38179;52.756;6.906;2023-12-20T12:55:42;6.40;99.90
52211;DHT22;38179;52.756;6.906;2023-12-20T12:58:08;6.40;99.90
52211;DHT22;38179;52.756;6.906;2023-12-20T13:00:34;6.50;99.90
52211;DHT22;38179;52.756;6.906;2023-12-20T13:03:00;6.40;99.90
52211;DHT22;38179;52.756;6.906;2023-12-20T13:05:26;6.40;99.90
52211;DHT22;38179;52.756;6.906;2023-12-20T13:07:53;6.40;99.90
52211;DHT22;38179;52.756;6.906;2023-12-20T13:10:19;6.40;99.90
52211;DHT22;38179;52.756;6.906;2023-12-20T13:12:45;6.40;99.90
52211;DHT22;38179;52.756;6.906;2023-12-20T13:15:11;6.30;99.90
52211;DHT22;38179;52.756;6.906;2023-12-20T13:17:37;6.30;99.90
52211;DHT22;38179;52.756;6.906;2023-12-20T13:20:04;6.30;99.90
52211;DHT22;38179;52.756;6.906;2023-12-20T13:22:31;6.30;99.90
52211;DHT22;38179;52.756;6.906;2023-12-20T13:24:57;6.10;99.90
52211;DHT22;38179;52.756;6.906;2023-12-20T13:27:23;6.10;99.90
52211;DHT22;38179;52.756;6.906;2023-12-20T13:29:49;6.10;99.90
52211;DHT22;38179;52.756;6.906;2023-12-20T13:32:15;6.00;99.90
52211;DHT22;38179;52.756;6.906;2023-12-20T13:34:41;5.90;99.90
52211;DHT22;38179;52.756;6.906;2023-12-20T13:37:07;5.90;99.90
52211;DHT22;38179;52.756;6.906;2023-12-20T13:39:33;5.80;99.90
52211;DHT22;38179;52.756;6.906;2023-12-20T13:41:59;5.80;99.90
52211;DHT22;38179;52.756;6.906;2023-12-20T13:44:25;5.80;99.90
52211;DHT22;38179;52.756;6.906;2023-12-20T13:46:51;5.70;99.90
52211;DHT22;38179;52.756;6.906;2023-12-20T13:49:17;5.70;99.90
52211;DHT22;38179;52.756;6.906;2023-12-20T13:51:43;5.70;99.90
52211;DHT22;38179;52.756;6.906;2023-12-20T13:54:09;5.70;99.90
52211;DHT22;38179;52.756;6.906;2023-12-20T13:56:36;5.60;99.90
52211;DHT22;38179;52.756;6.906;2023-12-20T13:59:02;5.70;99.90
52211;DHT22;38179;52.756;6.906;2023-12-20T14:01:28;5.60;99.90
52211;DHT22;38179;52.756;6.906;2023-12-20T14:03:54;5.60;99.90
52211;DHT22;38179;52.756;6.906;2023-12-20T14:06:19;5.60;99.90
52211;DHT22;38179;52.756;6.906;2023-12-20T14:08:45;5.60;99.90
52211;DHT22;38179;52.756;6.906;2023-12-20T14:11:11;5.60;99.90
52211;DHT22;38179;52.756;6.906;2023-12-20T14:13:39;5.60;99.90
52211;DHT22;38179;52.756;6.906;2023-12-20T14:16:06;5.50;99.90
52211;DHT22;38179;52.756;6.906;2023-12-20T14:18:32;5.50;99.90
52211;DHT22;38179;52.756;6.906;2023-12-20T14:20:58;5.50;99.90
52211;DHT22;38179;52.756;6.906;2023-12-20T14:23:24;5.50;99.90
52211;DHT22;38179;52.756;6.906;2023-12-20T14:25:50;5.50;99.90
52211;DHT22;38179;52.756;6.906;2023-12-20T14:28:15;5.50;99.90
52211;DHT22;38179;52.756;6.906;2023-12-20T14:30:41;5.50;99.90
52211;DHT22;38179;52.756;6.906;2023-12-20T14:33:16;5.50;99.90
52211;DHT22;38179;52.756;6.906;2023-12-20T14:35:45;5.50;99.90
52211;DHT22;38179;52.756;6.906;2023-12-20T14:38:11;5.50;99.90
52211;DHT22;38179;52.756;6.906;2023-12-20T14:40:40;5.50;99.90
52211;DHT22;38179;52.756;6.906;2023-12-20T14:43:06;5.50;99.90
52211;DHT22;38179;52.756;6.906;2023-12-20T14:45:32;5.50;99.90
52211;DHT22;38179;52.756;6.906;2023-12-20T14:47:58;5.50;99.90
52211;DHT22;38179;52.756;6.906;2023-12-20T14:50:24;5.50;99.90
52211;DHT22;38179;52.756;6.906;2023-12-20T14:52:51;5.40;99.90
52211;DHT22;38179;52.756;6.906;2023-12-20T14:55:21;5.50;99.90
52211;DHT22;38179;52.756;6.906;2023-12-20T14:57:47;5.50;99.90
52211;DHT22;38179;52.756;6.906;2023-12-20T15:00:12;5.50;99.90
52211;DHT22;38179;52.756;6.906;2023-12-20T15:02:42;5.40;99.90
52211;DHT22;38179;52.756;6.906;2023-12-20T15:05:09;5.40;99.90
52211;DHT22;38179;52.756;6.906;2023-12-20T15:07:35;5.40;99.90
52211;DHT22;38179;52.756;6.906;2023-12-20T15:10:02;5.50;99.90
52211;DHT22;38179;52.756;6.906;2023-12-20T15:12:28;5.50;99.90
52211;DHT22;38179;52.756;6.906;2023-12-20T15:14:54;5.50;99.90
52211;DHT22;38179;52.756;6.906;2023-12-20T15:17:20;5.50;99.90
52211;DHT22;38179;52.756;6.906;2023-12-20T15:19:46;5.50;99.90
52211;DHT22;38179;52.756;6.906;2023-12-20T15:22:12;5.50;99.90
52211;DHT22;38179;52.756;6.906;2023-12-20T15:24:39;5.50;99.90
52211;DHT22;38179;52.756;6.906;2023-12-20T15:27:06;5.60;99.90
52211;DHT22;38179;52.756;6.906;2023-12-20T15:29:33;5.60;99.90
52211;DHT22;38179;52.756;6.906;2023-12-20T15:31:59;5.60;99.90
52211;DHT22;38179;52.756;6.906;2023-12-20T15:34:25;5.60;99.90
52211;DHT22;38179;52.756;6.906;2023-12-20T15:36:51;5.70;99.90
52211;DHT22;38179;52.756;6.906;2023-12-20T15:39:16;5.70;99.90
52211;DHT22;38179;52.756;6.906;2023-12-20T15:41:42;5.70;99.90
52211;DHT22;38179;52.756;6.906;2023-12-20T15:44:12;5.80;99.90
52211;DHT22;38179;52.756;6.906;2023-12-20T15:46:39;5.90;99.90